Etusivu
METAR-TAF:

METAR-TAF

Lentoasemat :

Sandane, Norja

Leveyspiiri: 61-50N, Pituuspiiri: 006-07E, korkeus merenpinnasta: 6 m

Tämänhetkinen sää

Tämä raportti tehtiin 40 minuuttia sitten, kello 17.20 UTC
Tuuli 3 kn eri suunnista
Lämpötila 1°C
Kosteus 69%
Ilmanpaine 1023 hPa
Näkyvyys 10 km tai enemmän
ei pilviä alle 1500 m:ssä eikä cumulonimbus-pilviä

METAR: ENSD 191720Z VRB03KT CAVOK 01/M04 Q1023 RMK WIND 1138FT 07008KT

Aika: 19:00 (18:00 UTC)


TAF: puuttuu

Säähavainnot ja -ennusteet yli 4000 lentoasemalta (METAR- ja TAF-raportit).

Käytössä olevat sääasemat on merkitty karttaan keltaisilla ja punaisilla pisteillä.

Aseta hiiri pisteen päälle nähdäksesi sääaseman nimen.

Klikkaa sitten nähdäksesi säähavainnot ja -ennusteet.

Kartan vaihtaminen: klikkaa mustalla rastilla varustettuja vihreitä pisteitä, niin voit zoomata sisään; viivalla varustettua vihreää pistettä, niin voit zoomata ulos tai vihreitä nuolia, niin pääset viereisille kartoille.


METAR-TAF: